sensor_id;sensor_type;location;lat;lon;timestamp;P1;durP1;ratioP1;P2;durP2;ratioP2
34960;SDS011;30789;52.030;7.110;2023-05-29T00:00:37;12.18;;;2.35;;
34960;SDS011;30789;52.030;7.110;2023-05-29T00:03:04;12.07;;;2.55;;
34960;SDS011;30789;52.030;7.110;2023-05-29T00:05:31;11.68;;;2.88;;
34960;SDS011;30789;52.030;7.110;2023-05-29T00:07:57;14.57;;;3.42;;
34960;SDS011;30789;52.030;7.110;2023-05-29T00:10:24;14.50;;;2.88;;
34960;SDS011;30789;52.030;7.110;2023-05-29T00:12:50;12.68;;;2.92;;
34960;SDS011;30789;52.030;7.110;2023-05-29T00:15:17;12.75;;;2.63;;
34960;SDS011;30789;52.030;7.110;2023-05-29T00:17:44;6.93;;;2.53;;
34960;SDS011;30789;52.030;7.110;2023-05-29T00:20:12;15.00;;;2.88;;
34960;SDS011;30789;52.030;7.110;2023-05-29T00:22:38;16.55;;;3.10;;
34960;SDS011;30789;52.030;7.110;2023-05-29T00:25:05;8.90;;;2.47;;
34960;SDS011;30789;52.030;7.110;2023-05-29T00:27:32;9.80;;;2.25;;
34960;SDS011;30789;52.030;7.110;2023-05-29T00:30:00;13.13;;;2.80;;
34960;SDS011;30789;52.030;7.110;2023-05-29T00:32:27;15.65;;;3.53;;
34960;SDS011;30789;52.030;7.110;2023-05-29T00:34:53;10.52;;;2.65;;
34960;SDS011;30789;52.030;7.110;2023-05-29T00:37:22;18.92;;;3.13;;
34960;SDS011;30789;52.030;7.110;2023-05-29T00:39:49;14.85;;;3.03;;
34960;SDS011;30789;52.030;7.110;2023-05-29T00:42:16;12.35;;;2.97;;
34960;SDS011;30789;52.030;7.110;2023-05-29T00:44:42;17.75;;;2.83;;
34960;SDS011;30789;52.030;7.110;2023-05-29T00:47:08;10.05;;;2.30;;
34960;SDS011;30789;52.030;7.110;2023-05-29T00:49:35;12.90;;;2.47;;
34960;SDS011;30789;52.030;7.110;2023-05-29T00:52:02;16.10;;;3.00;;
34960;SDS011;30789;52.030;7.110;2023-05-29T00:54:33;19.23;;;3.63;;
34960;SDS011;30789;52.030;7.110;2023-05-29T00:57:01;11.40;;;2.47;;
34960;SDS011;30789;52.030;7.110;2023-05-29T00:59:30;9.98;;;2.78;;
34960;SDS011;30789;52.030;7.110;2023-05-29T01:01:58;18.45;;;3.50;;
34960;SDS011;30789;52.030;7.110;2023-05-29T01:04:25;14.52;;;2.63;;
34960;SDS011;30789;52.030;7.110;2023-05-29T01:06:52;11.27;;;2.30;;
34960;SDS011;30789;52.030;7.110;2023-05-29T01:09:18;15.45;;;2.88;;
34960;SDS011;30789;52.030;7.110;2023-05-29T01:11:49;12.18;;;2.58;;
34960;SDS011;30789;52.030;7.110;2023-05-29T01:14:23;12.05;;;2.58;;
34960;SDS011;30789;52.030;7.110;2023-05-29T01:16:55;12.57;;;2.42;;
34960;SDS011;30789;52.030;7.110;2023-05-29T01:19:35;12.98;;;2.50;;
34960;SDS011;30789;52.030;7.110;2023-05-29T01:22:12;13.23;;;3.15;;
34960;SDS011;30789;52.030;7.110;2023-05-29T01:24:48;10.73;;;2.53;;
34960;SDS011;30789;52.030;7.110;2023-05-29T01:27:18;19.35;;;3.35;;
34960;SDS011;30789;52.030;7.110;2023-05-29T01:29:47;9.95;;;2.70;;
34960;SDS011;30789;52.030;7.110;2023-05-29T01:32:17;14.57;;;3.03;;
34960;SDS011;30789;52.030;7.110;2023-05-29T01:34:45;18.88;;;3.35;;
34960;SDS011;30789;52.030;7.110;2023-05-29T01:37:11;9.48;;;2.63;;
34960;SDS011;30789;52.030;7.110;2023-05-29T01:39:38;14.10;;;2.85;;
34960;SDS011;30789;52.030;7.110;2023-05-29T01:42:05;16.05;;;2.75;;
34960;SDS011;30789;52.030;7.110;2023-05-29T01:44:33;18.40;;;3.53;;
34960;SDS011;30789;52.030;7.110;2023-05-29T01:47:00;9.82;;;2.33;;
34960;SDS011;30789;52.030;7.110;2023-05-29T01:49:28;10.43;;;2.28;;
34960;SDS011;30789;52.030;7.110;2023-05-29T01:51:55;16.42;;;3.00;;
34960;SDS011;30789;52.030;7.110;2023-05-29T01:54:22;15.65;;;2.95;;
34960;SDS011;30789;52.030;7.110;2023-05-29T01:56:48;9.60;;;3.40;;
34960;SDS011;30789;52.030;7.110;2023-05-29T01:59:15;19.58;;;3.03;;
34960;SDS011;30789;52.030;7.110;2023-05-29T02:01:44;10.95;;;3.15;;
34960;SDS011;30789;52.030;7.110;2023-05-29T02:04:11;11.85;;;2.85;;
34960;SDS011;30789;52.030;7.110;2023-05-29T02:06:37;15.32;;;3.45;;
34960;SDS011;30789;52.030;7.110;2023-05-29T02:09:04;11.50;;;2.88;;
34960;SDS011;30789;52.030;7.110;2023-05-29T02:11:31;11.48;;;2.42;;
34960;SDS011;30789;52.030;7.110;2023-05-29T02:13:58;13.75;;;2.88;;
34960;SDS011;30789;52.030;7.110;2023-05-29T02:16:27;11.57;;;2.95;;
34960;SDS011;30789;52.030;7.110;2023-05-29T02:18:54;13.43;;;2.75;;
34960;SDS011;30789;52.030;7.110;2023-05-29T02:21:22;17.67;;;2.80;;
34960;SDS011;30789;52.030;7.110;2023-05-29T02:23:48;13.82;;;2.75;;
34960;SDS011;30789;52.030;7.110;2023-05-29T02:26:15;15.75;;;3.30;;
34960;SDS011;30789;52.030;7.110;2023-05-29T02:28:41;10.07;;;2.88;;
34960;SDS011;30789;52.030;7.110;2023-05-29T02:31:08;13.55;;;3.20;;
34960;SDS011;30789;52.030;7.110;2023-05-29T02:33:35;15.07;;;3.20;;
34960;SDS011;30789;52.030;7.110;2023-05-29T02:36:03;10.93;;;2.85;;
34960;SDS011;30789;52.030;7.110;2023-05-29T02:38:36;15.95;;;2.65;;
34960;SDS011;30789;52.030;7.110;2023-05-29T02:41:03;16.90;;;3.00;;
34960;SDS011;30789;52.030;7.110;2023-05-29T02:43:29;11.10;;;2.75;;
34960;SDS011;30789;52.030;7.110;2023-05-29T02:45:56;17.98;;;3.05;;
34960;SDS011;30789;52.030;7.110;2023-05-29T02:48:22;14.63;;;2.95;;
34960;SDS011;30789;52.030;7.110;2023-05-29T02:50:49;14.85;;;2.78;;
34960;SDS011;30789;52.030;7.110;2023-05-29T02:53:17;14.68;;;2.92;;
34960;SDS011;30789;52.030;7.110;2023-05-29T02:55:43;14.98;;;3.22;;
34960;SDS011;30789;52.030;7.110;2023-05-29T02:58:10;15.05;;;3.15;;
34960;SDS011;30789;52.030;7.110;2023-05-29T03:00:37;15.43;;;3.22;;
34960;SDS011;30789;52.030;7.110;2023-05-29T03:03:04;17.05;;;3.28;;
34960;SDS011;30789;52.030;7.110;2023-05-29T03:05:30;18.65;;;3.70;;
34960;SDS011;30789;52.030;7.110;2023-05-29T03:07:57;15.57;;;3.38;;
34960;SDS011;30789;52.030;7.110;2023-05-29T03:10:24;15.02;;;3.38;;
34960;SDS011;30789;52.030;7.110;2023-05-29T03:12:51;15.30;;;2.72;;
34960;SDS011;30789;52.030;7.110;2023-05-29T03:15:17;11.13;;;2.75;;
34960;SDS011;30789;52.030;7.110;2023-05-29T03:17:45;13.88;;;2.70;;
34960;SDS011;30789;52.030;7.110;2023-05-29T03:20:12;7.30;;;2.85;;
34960;SDS011;30789;52.030;7.110;2023-05-29T03:22:40;14.55;;;3.33;;
34960;SDS011;30789;52.030;7.110;2023-05-29T03:25:07;18.17;;;3.15;;
34960;SDS011;30789;52.030;7.110;2023-05-29T03:27:36;16.38;;;3.05;;
34960;SDS011;30789;52.030;7.110;2023-05-29T03:30:02;12.98;;;2.70;;
34960;SDS011;30789;52.030;7.110;2023-05-29T03:32:29;16.33;;;3.03;;
34960;SDS011;30789;52.030;7.110;2023-05-29T03:34:55;15.90;;;3.03;;
34960;SDS011;30789;52.030;7.110;2023-05-29T03:37:22;12.65;;;2.55;;
34960;SDS011;30789;52.030;7.110;2023-05-29T03:39:49;12.90;;;3.13;;
34960;SDS011;30789;52.030;7.110;2023-05-29T03:42:15;12.85;;;2.75;;
34960;SDS011;30789;52.030;7.110;2023-05-29T03:44:43;17.77;;;2.88;;
34960;SDS011;30789;52.030;7.110;2023-05-29T03:47:09;10.35;;;2.60;;
34960;SDS011;30789;52.030;7.110;2023-05-29T03:49:36;10.65;;;2.50;;
34960;SDS011;30789;52.030;7.110;2023-05-29T03:52:03;15.20;;;2.67;;
34960;SDS011;30789;52.030;7.110;2023-05-29T03:54:30;12.25;;;2.85;;
34960;SDS011;30789;52.030;7.110;2023-05-29T03:56:56;13.40;;;2.85;;
34960;SDS011;30789;52.030;7.110;2023-05-29T03:59:23;12.73;;;2.97;;
34960;SDS011;30789;52.030;7.110;2023-05-29T04:01:50;12.80;;;2.55;;
34960;SDS011;30789;52.030;7.110;2023-05-29T04:04:17;13.57;;;2.75;;
34960;SDS011;30789;52.030;7.110;2023-05-29T04:06:43;12.20;;;2.88;;
34960;SDS011;30789;52.030;7.110;2023-05-29T04:09:10;17.23;;;3.13;;
34960;SDS011;30789;52.030;7.110;2023-05-29T04:11:36;14.68;;;2.92;;
34960;SDS011;30789;52.030;7.110;2023-05-29T04:14:03;12.07;;;3.25;;
34960;SDS011;30789;52.030;7.110;2023-05-29T04:16:30;8.00;;;2.28;;
34960;SDS011;30789;52.030;7.110;2023-05-29T04:18:57;15.60;;;2.85;;
34960;SDS011;30789;52.030;7.110;2023-05-29T04:21:24;14.48;;;3.33;;
34960;SDS011;30789;52.030;7.110;2023-05-29T04:23:51;19.42;;;3.10;;
34960;SDS011;30789;52.030;7.110;2023-05-29T04:26:18;11.77;;;2.42;;
34960;SDS011;30789;52.030;7.110;2023-05-29T04:28:49;19.73;;;3.15;;
34960;SDS011;30789;52.030;7.110;2023-05-29T04:31:17;11.13;;;2.60;;
34960;SDS011;30789;52.030;7.110;2023-05-29T04:33:44;13.27;;;3.45;;
34960;SDS011;30789;52.030;7.110;2023-05-29T04:36:12;14.90;;;3.30;;
34960;SDS011;30789;52.030;7.110;2023-05-29T04:38:38;14.95;;;2.70;;
34960;SDS011;30789;52.030;7.110;2023-05-29T04:41:06;12.00;;;2.90;;
34960;SDS011;30789;52.030;7.110;2023-05-29T04:43:33;16.60;;;3.55;;
34960;SDS011;30789;52.030;7.110;2023-05-29T04:46:02;15.45;;;3.20;;
34960;SDS011;30789;52.030;7.110;2023-05-29T04:48:28;27.60;;;3.97;;
34960;SDS011;30789;52.030;7.110;2023-05-29T04:50:54;14.93;;;2.92;;
34960;SDS011;30789;52.030;7.110;2023-05-29T04:53:23;16.88;;;3.13;;
34960;SDS011;30789;52.030;7.110;2023-05-29T04:55:50;21.85;;;3.28;;
34960;SDS011;30789;52.030;7.110;2023-05-29T04:58:16;23.92;;;3.55;;
34960;SDS011;30789;52.030;7.110;2023-05-29T05:00:42;12.63;;;3.33;;
34960;SDS011;30789;52.030;7.110;2023-05-29T05:03:09;11.75;;;2.90;;
34960;SDS011;30789;52.030;7.110;2023-05-29T05:05:35;14.93;;;3.03;;
34960;SDS011;30789;52.030;7.110;2023-05-29T05:08:02;14.40;;;2.85;;
34960;SDS011;30789;52.030;7.110;2023-05-29T05:10:30;15.20;;;2.70;;
34960;SDS011;30789;52.030;7.110;2023-05-29T05:12:56;15.10;;;2.88;;
34960;SDS011;30789;52.030;7.110;2023-05-29T05:15:23;21.25;;;3.30;;
34960;SDS011;30789;52.030;7.110;2023-05-29T05:17:49;8.40;;;2.22;;
34960;SDS011;30789;52.030;7.110;2023-05-29T05:20:16;10.07;;;3.50;;
34960;SDS011;30789;52.030;7.110;2023-05-29T05:22:42;16.25;;;3.60;;
34960;SDS011;30789;52.030;7.110;2023-05-29T05:25:08;15.45;;;2.92;;
34960;SDS011;30789;52.030;7.110;2023-05-29T05:27:36;11.40;;;2.78;;
34960;SDS011;30789;52.030;7.110;2023-05-29T05:30:03;13.40;;;2.85;;
34960;SDS011;30789;52.030;7.110;2023-05-29T05:32:30;19.50;;;3.70;;
34960;SDS011;30789;52.030;7.110;2023-05-29T05:34:56;10.27;;;2.60;;
34960;SDS011;30789;52.030;7.110;2023-05-29T05:37:23;20.40;;;4.05;;
34960;SDS011;30789;52.030;7.110;2023-05-29T05:39:50;13.55;;;3.00;;
34960;SDS011;30789;52.030;7.110;2023-05-29T05:42:18;18.48;;;3.47;;
34960;SDS011;30789;52.030;7.110;2023-05-29T05:44:46;16.25;;;3.03;;
34960;SDS011;30789;52.030;7.110;2023-05-29T05:47:12;13.82;;;2.63;;
34960;SDS011;30789;52.030;7.110;2023-05-29T05:49:39;13.00;;;2.53;;
34960;SDS011;30789;52.030;7.110;2023-05-29T05:52:06;17.73;;;3.10;;
34960;SDS011;30789;52.030;7.110;2023-05-29T05:54:32;15.35;;;2.47;;
34960;SDS011;30789;52.030;7.110;2023-05-29T05:56:59;13.35;;;3.03;;
34960;SDS011;30789;52.030;7.110;2023-05-29T05:59:25;18.08;;;3.67;;
34960;SDS011;30789;52.030;7.110;2023-05-29T06:01:53;13.52;;;3.03;;
34960;SDS011;30789;52.030;7.110;2023-05-29T06:04:19;12.27;;;2.88;;
34960;SDS011;30789;52.030;7.110;2023-05-29T06:06:46;13.57;;;2.72;;
34960;SDS011;30789;52.030;7.110;2023-05-29T06:09:12;17.42;;;3.47;;
34960;SDS011;30789;52.030;7.110;2023-05-29T06:11:39;19.48;;;3.30;;
34960;SDS011;30789;52.030;7.110;2023-05-29T06:14:05;13.70;;;3.15;;
34960;SDS011;30789;52.030;7.110;2023-05-29T06:16:32;17.60;;;3.75;;
34960;SDS011;30789;52.030;7.110;2023-05-29T06:19:00;18.98;;;3.72;;
34960;SDS011;30789;52.030;7.110;2023-05-29T06:21:27;11.88;;;2.47;;
34960;SDS011;30789;52.030;7.110;2023-05-29T06:23:53;13.77;;;3.72;;
34960;SDS011;30789;52.030;7.110;2023-05-29T06:26:20;12.25;;;2.72;;
34960;SDS011;30789;52.030;7.110;2023-05-29T06:28:46;13.15;;;2.55;;
34960;SDS011;30789;52.030;7.110;2023-05-29T06:31:13;13.68;;;2.80;;
34960;SDS011;30789;52.030;7.110;2023-05-29T06:33:39;13.38;;;2.47;;
34960;SDS011;30789;52.030;7.110;2023-05-29T06:36:07;14.68;;;3.05;;
34960;SDS011;30789;52.030;7.110;2023-05-29T06:38:34;13.30;;;2.75;;
34960;SDS011;30789;52.030;7.110;2023-05-29T06:41:00;14.23;;;3.00;;
34960;SDS011;30789;52.030;7.110;2023-05-29T06:43:27;10.73;;;2.75;;
34960;SDS011;30789;52.030;7.110;2023-05-29T06:45:54;14.98;;;2.70;;
34960;SDS011;30789;52.030;7.110;2023-05-29T06:48:21;19.27;;;2.70;;
34960;SDS011;30789;52.030;7.110;2023-05-29T06:50:48;12.27;;;2.42;;
34960;SDS011;30789;52.030;7.110;2023-05-29T06:53:16;16.00;;;2.70;;
34960;SDS011;30789;52.030;7.110;2023-05-29T06:55:42;17.20;;;2.85;;
34960;SDS011;30789;52.030;7.110;2023-05-29T06:58:09;9.52;;;2.45;;
34960;SDS011;30789;52.030;7.110;2023-05-29T07:00:35;12.57;;;2.33;;
34960;SDS011;30789;52.030;7.110;2023-05-29T07:03:02;14.88;;;3.25;;
34960;SDS011;30789;52.030;7.110;2023-05-29T07:05:28;18.20;;;3.53;;
34960;SDS011;30789;52.030;7.110;2023-05-29T07:07:55;14.07;;;2.45;;
34960;SDS011;30789;52.030;7.110;2023-05-29T07:10:22;18.55;;;2.75;;
34960;SDS011;30789;52.030;7.110;2023-05-29T07:12:49;16.30;;;3.55;;
34960;SDS011;30789;52.030;7.110;2023-05-29T07:15:15;13.52;;;3.03;;
34960;SDS011;30789;52.030;7.110;2023-05-29T07:17:42;13.10;;;2.22;;
34960;SDS011;30789;52.030;7.110;2023-05-29T07:20:08;15.35;;;2.67;;
34960;SDS011;30789;52.030;7.110;2023-05-29T07:22:35;11.55;;;2.22;;
34960;SDS011;30789;52.030;7.110;2023-05-29T07:25:02;13.13;;;2.50;;
34960;SDS011;30789;52.030;7.110;2023-05-29T07:27:30;10.57;;;2.22;;
34960;SDS011;30789;52.030;7.110;2023-05-29T07:29:57;18.10;;;2.92;;
34960;SDS011;30789;52.030;7.110;2023-05-29T07:32:23;12.85;;;2.13;;
34960;SDS011;30789;52.030;7.110;2023-05-29T07:34:50;17.63;;;2.92;;
34960;SDS011;30789;52.030;7.110;2023-05-29T07:37:16;9.98;;;2.25;;
34960;SDS011;30789;52.030;7.110;2023-05-29T07:39:44;10.88;;;2.75;;
34960;SDS011;30789;52.030;7.110;2023-05-29T07:42:10;13.40;;;2.90;;
34960;SDS011;30789;52.030;7.110;2023-05-29T07:44:38;10.93;;;2.33;;
34960;SDS011;30789;52.030;7.110;2023-05-29T07:47:06;11.38;;;2.50;;
34960;SDS011;30789;52.030;7.110;2023-05-29T07:49:33;9.40;;;2.05;;
34960;SDS011;30789;52.030;7.110;2023-05-29T07:52:00;12.25;;;2.58;;
34960;SDS011;30789;52.030;7.110;2023-05-29T07:54:27;11.73;;;2.75;;
34960;SDS011;30789;52.030;7.110;2023-05-29T07:56:53;17.40;;;2.47;;
34960;SDS011;30789;52.030;7.110;2023-05-29T07:59:20;9.30;;;2.63;;
34960;SDS011;30789;52.030;7.110;2023-05-29T08:01:48;14.90;;;2.60;;
34960;SDS011;30789;52.030;7.110;2023-05-29T08:04:15;9.32;;;1.98;;
34960;SDS011;30789;52.030;7.110;2023-05-29T08:06:41;8.68;;;2.65;;
34960;SDS011;30789;52.030;7.110;2023-05-29T08:09:08;17.67;;;3.17;;
34960;SDS011;30789;52.030;7.110;2023-05-29T08:11:35;12.02;;;2.30;;
34960;SDS011;30789;52.030;7.110;2023-05-29T08:14:02;8.13;;;1.67;;
34960;SDS011;30789;52.030;7.110;2023-05-29T08:16:28;10.35;;;2.25;;
34960;SDS011;30789;52.030;7.110;2023-05-29T08:18:56;12.43;;;2.50;;
34960;SDS011;30789;52.030;7.110;2023-05-29T08:21:23;8.80;;;2.45;;
34960;SDS011;30789;52.030;7.110;2023-05-29T08:23:50;9.30;;;2.58;;
34960;SDS011;30789;52.030;7.110;2023-05-29T08:26:17;12.93;;;2.78;;
34960;SDS011;30789;52.030;7.110;2023-05-29T08:28:43;15.05;;;2.50;;
34960;SDS011;30789;52.030;7.110;2023-05-29T08:31:10;13.73;;;2.35;;
34960;SDS011;30789;52.030;7.110;2023-05-29T08:33:36;12.93;;;2.78;;
34960;SDS011;30789;52.030;7.110;2023-05-29T08:36:04;7.13;;;2.47;;
34960;SDS011;30789;52.030;7.110;2023-05-29T08:38:30;13.68;;;2.42;;
34960;SDS011;30789;52.030;7.110;2023-05-29T08:40:57;9.70;;;2.42;;
34960;SDS011;30789;52.030;7.110;2023-05-29T08:43:25;13.50;;;2.38;;
34960;SDS011;30789;52.030;7.110;2023-05-29T08:45:58;13.45;;;2.65;;
34960;SDS011;30789;52.030;7.110;2023-05-29T08:48:27;11.70;;;2.25;;
34960;SDS011;30789;52.030;7.110;2023-05-29T08:50:55;7.57;;;2.13;;
34960;SDS011;30789;52.030;7.110;2023-05-29T08:53:24;11.43;;;2.25;;
34960;SDS011;30789;52.030;7.110;2023-05-29T08:55:51;10.75;;;2.45;;
34960;SDS011;30789;52.030;7.110;2023-05-29T08:58:20;14.57;;;2.38;;
34960;SDS011;30789;52.030;7.110;2023-05-29T09:00:48;11.20;;;2.55;;
34960;SDS011;30789;52.030;7.110;2023-05-29T09:03:15;9.30;;;2.30;;
34960;SDS011;30789;52.030;7.110;2023-05-29T09:05:42;9.38;;;2.53;;
34960;SDS011;30789;52.030;7.110;2023-05-29T09:08:09;13.35;;;2.33;;
34960;SDS011;30789;52.030;7.110;2023-05-29T09:10:38;8.85;;;2.65;;
34960;SDS011;30789;52.030;7.110;2023-05-29T09:13:05;11.82;;;2.22;;
34960;SDS011;30789;52.030;7.110;2023-05-29T09:15:32;12.30;;;2.42;;
34960;SDS011;30789;52.030;7.110;2023-05-29T09:17:59;9.38;;;2.65;;
34960;SDS011;30789;52.030;7.110;2023-05-29T09:20:25;9.80;;;2.78;;
34960;SDS011;30789;52.030;7.110;2023-05-29T09:22:52;10.23;;;2.72;;
34960;SDS011;30789;52.030;7.110;2023-05-29T09:25:20;11.15;;;2.53;;
34960;SDS011;30789;52.030;7.110;2023-05-29T09:27:51;16.65;;;2.72;;
34960;SDS011;30789;52.030;7.110;2023-05-29T09:33:01;10.25;;;2.08;;
34960;SDS011;30789;52.030;7.110;2023-05-29T09:35:32;8.30;;;2.05;;
34960;SDS011;30789;52.030;7.110;2023-05-29T09:38:00;9.95;;;2.88;;
34960;SDS011;30789;52.030;7.110;2023-05-29T09:40:29;11.38;;;2.25;;
34960;SDS011;30789;52.030;7.110;2023-05-29T09:43:02;12.57;;;2.53;;
34960;SDS011;30789;52.030;7.110;2023-05-29T09:45:30;10.48;;;2.78;;
34960;SDS011;30789;52.030;7.110;2023-05-29T09:47:57;10.23;;;2.40;;
34960;SDS011;30789;52.030;7.110;2023-05-29T09:50:25;12.77;;;2.55;;
34960;SDS011;30789;52.030;7.110;2023-05-29T09:52:52;9.50;;;2.00;;
34960;SDS011;30789;52.030;7.110;2023-05-29T09:55:19;5.78;;;2.08;;
34960;SDS011;30789;52.030;7.110;2023-05-29T09:57:46;12.00;;;2.50;;
34960;SDS011;30789;52.030;7.110;2023-05-29T10:00:15;6.63;;;2.05;;
34960;SDS011;30789;52.030;7.110;2023-05-29T10:02:43;8.10;;;2.58;;
34960;SDS011;30789;52.030;7.110;2023-05-29T10:05:10;7.65;;;2.13;;
34960;SDS011;30789;52.030;7.110;2023-05-29T10:07:40;6.43;;;2.30;;
34960;SDS011;30789;52.030;7.110;2023-05-29T10:10:11;8.93;;;2.00;;
34960;SDS011;30789;52.030;7.110;2023-05-29T10:12:38;7.60;;;2.13;;
34960;SDS011;30789;52.030;7.110;2023-05-29T10:15:11;6.43;;;1.75;;
34960;SDS011;30789;52.030;7.110;2023-05-29T10:17:41;7.57;;;2.42;;
34960;SDS011;30789;52.030;7.110;2023-05-29T10:20:16;9.13;;;2.63;;
34960;SDS011;30789;52.030;7.110;2023-05-29T10:22:45;5.43;;;1.98;;
34960;SDS011;30789;52.030;7.110;2023-05-29T10:25:13;8.65;;;2.00;;
34960;SDS011;30789;52.030;7.110;2023-05-29T10:27:40;7.10;;;1.83;;
34960;SDS011;30789;52.030;7.110;2023-05-29T10:30:09;12.73;;;2.38;;
34960;SDS011;30789;52.030;7.110;2023-05-29T10:35:10;8.27;;;2.30;;
34960;SDS011;30789;52.030;7.110;2023-05-29T10:37:42;8.00;;;2.10;;
34960;SDS011;30789;52.030;7.110;2023-05-29T10:40:12;5.53;;;2.13;;
34960;SDS011;30789;52.030;7.110;2023-05-29T10:42:43;10.18;;;2.03;;
34960;SDS011;30789;52.030;7.110;2023-05-29T10:47:37;18.30;;;3.05;;
34960;SDS011;30789;52.030;7.110;2023-05-29T10:50:06;5.05;;;1.83;;
34960;SDS011;30789;52.030;7.110;2023-05-29T10:52:32;5.20;;;1.98;;
34960;SDS011;30789;52.030;7.110;2023-05-29T10:54:59;10.63;;;1.92;;
34960;SDS011;30789;52.030;7.110;2023-05-29T10:57:28;8.20;;;2.17;;
34960;SDS011;30789;52.030;7.110;2023-05-29T11:00:04;7.32;;;1.98;;
34960;SDS011;30789;52.030;7.110;2023-05-29T11:02:38;10.10;;;2.05;;
34960;SDS011;30789;52.030;7.110;2023-05-29T11:05:11;6.47;;;2.15;;
34960;SDS011;30789;52.030;7.110;2023-05-29T11:07:51;7.45;;;1.70;;
34960;SDS011;30789;52.030;7.110;2023-05-29T11:13:25;8.35;;;2.22;;
34960;SDS011;30789;52.030;7.110;2023-05-29T11:16:12;6.10;;;2.00;;
34960;SDS011;30789;52.030;7.110;2023-05-29T11:18:40;5.43;;;2.30;;
34960;SDS011;30789;52.030;7.110;2023-05-29T11:21:15;9.02;;;1.80;;
34960;SDS011;30789;52.030;7.110;2023-05-29T11:23:50;7.35;;;2.00;;
34960;SDS011;30789;52.030;7.110;2023-05-29T11:26:17;8.05;;;2.40;;
34960;SDS011;30789;52.030;7.110;2023-05-29T11:28:44;6.45;;;1.95;;
34960;SDS011;30789;52.030;7.110;2023-05-29T11:31:10;7.15;;;2.20;;
34960;SDS011;30789;52.030;7.110;2023-05-29T11:33:39;6.88;;;2.10;;
34960;SDS011;30789;52.030;7.110;2023-05-29T11:36:08;5.57;;;1.65;;
34960;SDS011;30789;52.030;7.110;2023-05-29T11:38:36;9.57;;;2.13;;
34960;SDS011;30789;52.030;7.110;2023-05-29T11:41:03;8.60;;;2.35;;
34960;SDS011;30789;52.030;7.110;2023-05-29T11:43:29;8.82;;;2.53;;
34960;SDS011;30789;52.030;7.110;2023-05-29T11:45:57;6.20;;;2.38;;
34960;SDS011;30789;52.030;7.110;2023-05-29T11:48:23;7.10;;;1.92;;
34960;SDS011;30789;52.030;7.110;2023-05-29T11:50:50;6.65;;;2.13;;
34960;SDS011;30789;52.030;7.110;2023-05-29T11:53:16;5.63;;;2.00;;
34960;SDS011;30789;52.030;7.110;2023-05-29T11:55:44;8.43;;;2.15;;
34960;SDS011;30789;52.030;7.110;2023-05-29T11:58:10;6.00;;;1.92;;
34960;SDS011;30789;52.030;7.110;2023-05-29T12:00:37;4.68;;;1.65;;
34960;SDS011;30789;52.030;7.110;2023-05-29T12:03:05;5.72;;;1.90;;
34960;SDS011;30789;52.030;7.110;2023-05-29T12:05:32;8.98;;;2.17;;
34960;SDS011;30789;52.030;7.110;2023-05-29T12:08:10;7.28;;;1.92;;
34960;SDS011;30789;52.030;7.110;2023-05-29T12:10:36;6.43;;;2.30;;
34960;SDS011;30789;52.030;7.110;2023-05-29T12:13:04;5.03;;;2.03;;
34960;SDS011;30789;52.030;7.110;2023-05-29T12:15:31;5.55;;;2.10;;
34960;SDS011;30789;52.030;7.110;2023-05-29T12:17:58;6.65;;;1.92;;
34960;SDS011;30789;52.030;7.110;2023-05-29T12:20:25;7.70;;;1.90;;
34960;SDS011;30789;52.030;7.110;2023-05-29T12:22:52;6.75;;;2.00;;
34960;SDS011;30789;52.030;7.110;2023-05-29T12:25:19;6.68;;;2.15;;
34960;SDS011;30789;52.030;7.110;2023-05-29T12:27:47;6.07;;;2.10;;
34960;SDS011;30789;52.030;7.110;2023-05-29T12:30:19;5.55;;;2.08;;
34960;SDS011;30789;52.030;7.110;2023-05-29T12:32:46;4.15;;;1.92;;
34960;SDS011;30789;52.030;7.110;2023-05-29T12:35:16;4.68;;;2.00;;
34960;SDS011;30789;52.030;7.110;2023-05-29T12:37:44;5.10;;;1.70;;
34960;SDS011;30789;52.030;7.110;2023-05-29T12:40:14;9.60;;;2.20;;
34960;SDS011;30789;52.030;7.110;2023-05-29T12:42:42;5.63;;;1.55;;
34960;SDS011;30789;52.030;7.110;2023-05-29T12:45:09;8.43;;;2.10;;
34960;SDS011;30789;52.030;7.110;2023-05-29T12:47:37;6.78;;;1.98;;
34960;SDS011;30789;52.030;7.110;2023-05-29T12:50:19;11.82;;;2.53;;
34960;SDS011;30789;52.030;7.110;2023-05-29T12:52:52;6.40;;;2.45;;
34960;SDS011;30789;52.030;7.110;2023-05-29T12:55:19;6.88;;;2.10;;
34960;SDS011;30789;52.030;7.110;2023-05-29T12:57:46;7.07;;;1.65;;
34960;SDS011;30789;52.030;7.110;2023-05-29T13:00:13;6.47;;;2.00;;
34960;SDS011;30789;52.030;7.110;2023-05-29T13:02:41;4.93;;;1.95;;
34960;SDS011;30789;52.030;7.110;2023-05-29T13:05:07;6.38;;;2.08;;
34960;SDS011;30789;52.030;7.110;2023-05-29T13:07:34;6.90;;;2.08;;
34960;SDS011;30789;52.030;7.110;2023-05-29T13:10:01;7.68;;;2.17;;
34960;SDS011;30789;52.030;7.110;2023-05-29T13:12:28;6.53;;;2.00;;
34960;SDS011;30789;52.030;7.110;2023-05-29T13:14:54;6.97;;;2.00;;
34960;SDS011;30789;52.030;7.110;2023-05-29T13:17:21;6.95;;;1.83;;
34960;SDS011;30789;52.030;7.110;2023-05-29T13:19:49;10.10;;;2.42;;
34960;SDS011;30789;52.030;7.110;2023-05-29T13:22:16;8.98;;;2.40;;
34960;SDS011;30789;52.030;7.110;2023-05-29T13:24:42;8.75;;;2.35;;
34960;SDS011;30789;52.030;7.110;2023-05-29T13:27:09;7.75;;;2.13;;
34960;SDS011;30789;52.030;7.110;2023-05-29T13:29:35;5.03;;;1.70;;
34960;SDS011;30789;52.030;7.110;2023-05-29T13:32:02;6.32;;;2.00;;
34960;SDS011;30789;52.030;7.110;2023-05-29T13:34:28;9.88;;;2.05;;
34960;SDS011;30789;52.030;7.110;2023-05-29T13:36:56;9.43;;;2.15;;
34960;SDS011;30789;52.030;7.110;2023-05-29T13:39:23;5.90;;;1.98;;
34960;SDS011;30789;52.030;7.110;2023-05-29T13:41:49;7.03;;;2.10;;
34960;SDS011;30789;52.030;7.110;2023-05-29T13:44:16;7.47;;;2.30;;
34960;SDS011;30789;52.030;7.110;2023-05-29T13:46:42;6.97;;;1.63;;
34960;SDS011;30789;52.030;7.110;2023-05-29T13:49:09;7.45;;;2.17;;
34960;SDS011;30789;52.030;7.110;2023-05-29T13:51:35;9.70;;;1.90;;
34960;SDS011;30789;52.030;7.110;2023-05-29T13:54:03;5.28;;;2.00;;
34960;SDS011;30789;52.030;7.110;2023-05-29T13:56:30;5.95;;;1.92;;
34960;SDS011;30789;52.030;7.110;2023-05-29T13:58:57;7.20;;;2.05;;
34960;SDS011;30789;52.030;7.110;2023-05-29T14:01:24;6.53;;;1.95;;
34960;SDS011;30789;52.030;7.110;2023-05-29T14:03:51;7.32;;;2.28;;
34960;SDS011;30789;52.030;7.110;2023-05-29T14:06:17;7.95;;;2.47;;
34960;SDS011;30789;52.030;7.110;2023-05-29T14:08:43;6.30;;;1.88;;
34960;SDS011;30789;52.030;7.110;2023-05-29T14:11:11;5.78;;;1.98;;
34960;SDS011;30789;52.030;7.110;2023-05-29T14:13:38;5.93;;;1.88;;
34960;SDS011;30789;52.030;7.110;2023-05-29T14:16:04;5.90;;;1.70;;
34960;SDS011;30789;52.030;7.110;2023-05-29T14:18:31;5.22;;;1.70;;
34960;SDS011;30789;52.030;7.110;2023-05-29T14:20:57;5.57;;;1.88;;
34960;SDS011;30789;52.030;7.110;2023-05-29T14:23:24;6.72;;;1.63;;
34960;SDS011;30789;52.030;7.110;2023-05-29T14:25:50;5.38;;;1.95;;
34960;SDS011;30789;52.030;7.110;2023-05-29T14:28:18;6.00;;;2.05;;
34960;SDS011;30789;52.030;7.110;2023-05-29T14:30:45;7.35;;;1.98;;
34960;SDS011;30789;52.030;7.110;2023-05-29T14:33:11;6.03;;;2.13;;
34960;SDS011;30789;52.030;7.110;2023-05-29T14:35:37;6.65;;;1.90;;
34960;SDS011;30789;52.030;7.110;2023-05-29T14:38:04;9.75;;;2.45;;
34960;SDS011;30789;52.030;7.110;2023-05-29T14:40:30;11.13;;;2.08;;
34960;SDS011;30789;52.030;7.110;2023-05-29T14:42:59;6.90;;;2.00;;
34960;SDS011;30789;52.030;7.110;2023-05-29T14:45:26;8.80;;;2.33;;
34960;SDS011;30789;52.030;7.110;2023-05-29T14:47:53;10.48;;;2.35;;
34960;SDS011;30789;52.030;7.110;2023-05-29T14:50:19;5.03;;;2.03;;
34960;SDS011;30789;52.030;7.110;2023-05-29T14:52:46;6.70;;;2.33;;